Columbus, Ohio
Current Conditions -  °F | °C
As of 11:51 AM on Saturday 25 Oct 2014 (Local Time) from KCMH Reporting Station
Scattered Clouds Scattered Clouds  
Wind Chill: 58°   Ceiling: Unl
Heat Index: 58°   Visibility: 8mi
Dew Point: 49°   Wind: 8mph
Humidity: 72%   Direction: 210°SSW
Pressure: 29.93"   Gusts: NA
Location:  39.96°N, 83°W
Report Text: KCMH 251551Z 21007KT 8SM FEW044 SCT250 14/09 A2993 RMK AO2 SLP134 T01440094
Loading
Personal Weather Stations






























Interactive Weather Map
Tropical Storm Tracking
New forecast layout! Learn more

10-Day Weather Forecast

Advertisements
Track Severe Weather on mobile